sensor_id;sensor_type;location;lat;lon;timestamp;pressure;altitude;pressure_sealevel;temperature;humidity
78444;BME280;67739;52.986;8.894;2023-05-10T00:01:15;100769.09;;;13.90;58.56
78444;BME280;67739;52.986;8.894;2023-05-10T00:03:41;100763.78;;;13.88;58.07
78444;BME280;67739;52.986;8.894;2023-05-10T00:06:06;100767.34;;;13.89;58.21
78444;BME280;67739;52.986;8.894;2023-05-10T00:08:32;100761.97;;;13.89;58.28
78444;BME280;67739;52.986;8.894;2023-05-10T00:10:57;100765.72;;;13.86;58.09
78444;BME280;67739;52.986;8.894;2023-05-10T00:13:22;100762.06;;;13.87;57.86
78444;BME280;67739;52.986;8.894;2023-05-10T00:15:47;100766.66;;;13.85;57.78
78444;BME280;67739;52.986;8.894;2023-05-10T00:18:13;100756.19;;;13.80;58.45
78444;BME280;67739;52.986;8.894;2023-05-10T00:20:38;100759.84;;;13.79;58.78
78444;BME280;67739;52.986;8.894;2023-05-10T00:23:03;100765.41;;;13.76;59.11
78444;BME280;67739;52.986;8.894;2023-05-10T00:25:29;100763.13;;;13.70;59.46
78444;BME280;67739;52.986;8.894;2023-05-10T00:27:54;100751.75;;;13.65;59.29
78444;BME280;67739;52.986;8.894;2023-05-10T00:30:23;100749.50;;;13.58;59.81
78444;BME280;67739;52.986;8.894;2023-05-10T00:32:48;100749.91;;;13.52;59.90
78444;BME280;67739;52.986;8.894;2023-05-10T00:35:15;100748.25;;;13.49;59.64
78444;BME280;67739;52.986;8.894;2023-05-10T00:37:40;100754.59;;;13.48;60.16
78444;BME280;67739;52.986;8.894;2023-05-10T00:40:06;100754.78;;;13.45;60.39
78444;BME280;67739;52.986;8.894;2023-05-10T00:42:32;100759.38;;;13.43;60.75
78444;BME280;67739;52.986;8.894;2023-05-10T00:44:57;100760.47;;;13.40;61.22
78444;BME280;67739;52.986;8.894;2023-05-10T00:47:23;100765.84;;;13.40;61.28
78444;BME280;67739;52.986;8.894;2023-05-10T00:49:49;100749.94;;;13.36;62.07
78444;BME280;67739;52.986;8.894;2023-05-10T00:52:14;100752.56;;;13.37;62.57
78444;BME280;67739;52.986;8.894;2023-05-10T00:54:40;100749.94;;;13.36;62.72
78444;BME280;67739;52.986;8.894;2023-05-10T00:57:06;100744.91;;;13.30;63.25
78444;BME280;67739;52.986;8.894;2023-05-10T00:59:31;100736.94;;;13.28;63.15
78444;BME280;67739;52.986;8.894;2023-05-10T01:01:57;100730.88;;;13.25;62.98
78444;BME280;67739;52.986;8.894;2023-05-10T01:04:23;100733.75;;;13.22;62.51
78444;BME280;67739;52.986;8.894;2023-05-10T01:06:51;100724.97;;;13.18;62.33
78444;BME280;67739;52.986;8.894;2023-05-10T01:09:16;100730.59;;;13.14;61.98
78444;BME280;67739;52.986;8.894;2023-05-10T01:11:43;100740.63;;;13.12;62.61
78444;BME280;67739;52.986;8.894;2023-05-10T01:14:09;100732.81;;;13.07;62.39
78444;BME280;67739;52.986;8.894;2023-05-10T01:16:37;100729.25;;;13.06;62.65
78444;BME280;67739;52.986;8.894;2023-05-10T01:19:12;100730.38;;;13.02;62.18
78444;BME280;67739;52.986;8.894;2023-05-10T01:21:51;100734.03;;;13.01;62.22
78444;BME280;67739;52.986;8.894;2023-05-10T01:35:21;100723.72;;;12.94;62.93
78444;BME280;67739;52.986;8.894;2023-05-10T01:40:39;100728.31;;;12.92;62.22
78444;BME280;67739;52.986;8.894;2023-05-10T01:43:17;100732.84;;;12.91;62.19
78444;BME280;67739;52.986;8.894;2023-05-10T01:45:54;100729.28;;;12.91;62.46
78444;BME280;67739;52.986;8.894;2023-05-10T01:48:26;100724.84;;;12.90;62.40
78444;BME280;67739;52.986;8.894;2023-05-10T01:50:53;100718.78;;;12.86;62.17
78444;BME280;67739;52.986;8.894;2023-05-10T01:53:20;100712.59;;;12.84;62.07
78444;BME280;67739;52.986;8.894;2023-05-10T01:55:51;100712.53;;;12.86;61.84
78444;BME280;67739;52.986;8.894;2023-05-10T01:58:25;100710.78;;;12.85;61.92
78444;BME280;67739;52.986;8.894;2023-05-10T02:00:52;100714.34;;;12.85;62.02
78444;BME280;67739;52.986;8.894;2023-05-10T02:03:22;100713.59;;;12.83;61.78
78444;BME280;67739;52.986;8.894;2023-05-10T02:05:49;100714.63;;;12.81;62.74
78444;BME280;67739;52.986;8.894;2023-05-10T02:08:17;100715.50;;;12.81;62.81
78444;BME280;67739;52.986;8.894;2023-05-10T02:10:45;100717.31;;;12.81;63.03
78444;BME280;67739;52.986;8.894;2023-05-10T02:13:12;100721.06;;;12.78;63.41
78444;BME280;67739;52.986;8.894;2023-05-10T02:15:39;100719.22;;;12.79;63.63
78444;BME280;67739;52.986;8.894;2023-05-10T02:18:07;100715.75;;;12.77;63.70
78444;BME280;67739;52.986;8.894;2023-05-10T02:20:34;100714.91;;;12.76;64.14
78444;BME280;67739;52.986;8.894;2023-05-10T02:23:03;100716.09;;;12.70;64.51
78444;BME280;67739;52.986;8.894;2023-05-10T02:25:29;100721.50;;;12.70;64.70
78444;BME280;67739;52.986;8.894;2023-05-10T02:27:57;100711.88;;;12.66;64.53
78444;BME280;67739;52.986;8.894;2023-05-10T02:30:23;100723.50;;;12.67;64.74
78444;BME280;67739;52.986;8.894;2023-05-10T02:32:50;100717.34;;;12.65;64.97
78444;BME280;67739;52.986;8.894;2023-05-10T02:35:16;100726.47;;;12.62;64.93
78444;BME280;67739;52.986;8.894;2023-05-10T02:37:43;100723.06;;;12.59;64.63
78444;BME280;67739;52.986;8.894;2023-05-10T02:40:10;100720.38;;;12.59;64.76
78444;BME280;67739;52.986;8.894;2023-05-10T02:42:37;100724.03;;;12.58;64.32
78444;BME280;67739;52.986;8.894;2023-05-10T02:45:10;100728.53;;;12.57;64.83
78444;BME280;67739;52.986;8.894;2023-05-10T02:47:36;100717.97;;;12.54;64.40
78444;BME280;67739;52.986;8.894;2023-05-10T02:50:02;100727.75;;;12.55;64.97
78444;BME280;67739;52.986;8.894;2023-05-10T02:52:34;100718.72;;;12.56;65.07
78444;BME280;67739;52.986;8.894;2023-05-10T02:55:02;100728.81;;;12.53;65.44
78444;BME280;67739;52.986;8.894;2023-05-10T02:57:32;100724.47;;;12.50;65.58
78444;BME280;67739;52.986;8.894;2023-05-10T02:59:58;100720.13;;;12.48;65.53
78444;BME280;67739;52.986;8.894;2023-05-10T03:02:25;100722.13;;;12.44;65.68
78444;BME280;67739;52.986;8.894;2023-05-10T03:04:51;100711.38;;;12.44;65.67
78444;BME280;67739;52.986;8.894;2023-05-10T03:07:16;100712.41;;;12.42;66.08
78444;BME280;67739;52.986;8.894;2023-05-10T03:09:44;100720.66;;;12.38;65.80
78444;BME280;67739;52.986;8.894;2023-05-10T03:12:41;100719.72;;;12.39;65.94
78444;BME280;67739;52.986;8.894;2023-05-10T03:15:25;100713.63;;;12.36;65.81
78444;BME280;67739;52.986;8.894;2023-05-10T03:18:04;100711.91;;;12.35;65.74
78444;BME280;67739;52.986;8.894;2023-05-10T03:20:37;100717.38;;;12.33;65.86
78444;BME280;67739;52.986;8.894;2023-05-10T03:25:47;100719.25;;;12.31;65.85
78444;BME280;67739;52.986;8.894;2023-05-10T03:28:14;100717.53;;;12.30;66.44
78444;BME280;67739;52.986;8.894;2023-05-10T03:30:41;100712.31;;;12.27;66.20
78444;BME280;67739;52.986;8.894;2023-05-10T03:33:08;100710.50;;;12.28;66.34
78444;BME280;67739;52.986;8.894;2023-05-10T03:35:33;100713.38;;;12.25;67.03
78444;BME280;67739;52.986;8.894;2023-05-10T03:37:59;100703.75;;;12.21;67.27
78444;BME280;67739;52.986;8.894;2023-05-10T03:40:26;100714.50;;;12.21;67.42
78444;BME280;67739;52.986;8.894;2023-05-10T03:42:51;100712.84;;;12.18;67.30
78444;BME280;67739;52.986;8.894;2023-05-10T03:45:16;100725.34;;;12.19;67.42
78444;BME280;67739;52.986;8.894;2023-05-10T03:47:42;100714.66;;;12.18;67.65
78444;BME280;67739;52.986;8.894;2023-05-10T03:50:07;100721.94;;;12.16;68.14
78444;BME280;67739;52.986;8.894;2023-05-10T03:52:33;100717.44;;;12.16;68.35
78444;BME280;67739;52.986;8.894;2023-05-10T03:54:58;100707.78;;;12.12;68.94
78444;BME280;67739;52.986;8.894;2023-05-10T03:57:24;100709.72;;;12.10;69.12
78444;BME280;67739;52.986;8.894;2023-05-10T03:59:49;100709.72;;;12.10;69.14
78444;BME280;67739;52.986;8.894;2023-05-10T04:02:15;100707.03;;;12.10;69.41
78444;BME280;67739;52.986;8.894;2023-05-10T04:04:40;100716.13;;;12.08;69.75
78444;BME280;67739;52.986;8.894;2023-05-10T04:07:05;100707.19;;;12.07;70.36
78444;BME280;67739;52.986;8.894;2023-05-10T04:09:31;100712.75;;;12.04;70.71
78444;BME280;67739;52.986;8.894;2023-05-10T04:11:56;100705.72;;;12.01;70.54
78444;BME280;67739;52.986;8.894;2023-05-10T04:14:21;100711.09;;;12.01;70.86
78444;BME280;67739;52.986;8.894;2023-05-10T04:16:47;100703.31;;;11.97;71.31
78444;BME280;67739;52.986;8.894;2023-05-10T04:19:12;100713.06;;;11.98;71.44
78444;BME280;67739;52.986;8.894;2023-05-10T04:21:37;100707.88;;;11.95;71.80
78444;BME280;67739;52.986;8.894;2023-05-10T04:24:03;100701.66;;;11.94;72.24
78444;BME280;67739;52.986;8.894;2023-05-10T04:26:29;100709.78;;;11.93;72.48
78444;BME280;67739;52.986;8.894;2023-05-10T04:28:54;100716.13;;;11.92;72.71
78444;BME280;67739;52.986;8.894;2023-05-10T04:31:19;100711.69;;;11.91;72.38
78444;BME280;67739;52.986;8.894;2023-05-10T04:33:45;100717.06;;;11.91;72.95
78444;BME280;67739;52.986;8.894;2023-05-10T04:36:10;100711.84;;;11.88;72.50
78444;BME280;67739;52.986;8.894;2023-05-10T04:38:36;100713.59;;;11.89;72.90
78444;BME280;67739;52.986;8.894;2023-05-10T04:41:06;100718.09;;;11.88;73.14
78444;BME280;67739;52.986;8.894;2023-05-10T04:43:31;100720.69;;;11.90;73.44
78444;BME280;67739;52.986;8.894;2023-05-10T04:45:57;100719.75;;;11.91;74.02
78444;BME280;67739;52.986;8.894;2023-05-10T04:48:22;100733.97;;;11.93;74.11
78444;BME280;67739;52.986;8.894;2023-05-10T04:50:47;100725.06;;;11.92;73.96
78444;BME280;67739;52.986;8.894;2023-05-10T04:53:13;100727.75;;;11.92;73.90
78444;BME280;67739;52.986;8.894;2023-05-10T04:55:38;100724.97;;;11.94;74.14
78444;BME280;67739;52.986;8.894;2023-05-10T04:58:04;100723.31;;;11.91;74.46
78444;BME280;67739;52.986;8.894;2023-05-10T05:00:29;100726.88;;;11.92;74.71
78444;BME280;67739;52.986;8.894;2023-05-10T05:02:55;100734.94;;;11.92;75.01
78444;BME280;67739;52.986;8.894;2023-05-10T05:05:20;100760.78;;;11.94;75.74
78444;BME280;67739;52.986;8.894;2023-05-10T05:07:45;100752.66;;;11.96;76.34
78444;BME280;67739;52.986;8.894;2023-05-10T05:10:11;100766.84;;;11.98;76.89
78444;BME280;67739;52.986;8.894;2023-05-10T05:12:36;100765.03;;;11.98;77.49
78444;BME280;67739;52.986;8.894;2023-05-10T05:15:02;100767.72;;;11.98;77.44
78444;BME280;67739;52.986;8.894;2023-05-10T05:17:29;100766.09;;;11.96;76.94
78444;BME280;67739;52.986;8.894;2023-05-10T05:19:55;100774.47;;;11.90;77.17
78444;BME280;67739;52.986;8.894;2023-05-10T05:22:20;100773.75;;;11.86;77.08
78444;BME280;67739;52.986;8.894;2023-05-10T05:24:52;100781.13;;;11.83;77.03
78444;BME280;67739;52.986;8.894;2023-05-10T05:27:17;100771.50;;;11.79;77.42
78444;BME280;67739;52.986;8.894;2023-05-10T05:29:43;100770.69;;;11.77;77.64
78444;BME280;67739;52.986;8.894;2023-05-10T05:32:08;100770.75;;;11.75;77.94
78444;BME280;67739;52.986;8.894;2023-05-10T05:34:34;100774.38;;;11.74;78.22
78444;BME280;67739;52.986;8.894;2023-05-10T05:36:59;100773.50;;;11.74;78.15
78444;BME280;67739;52.986;8.894;2023-05-10T05:39:24;100779.75;;;11.74;78.29
78444;BME280;67739;52.986;8.894;2023-05-10T05:41:50;100778.88;;;11.74;78.50
78444;BME280;67739;52.986;8.894;2023-05-10T05:44:15;100778.09;;;11.72;78.51
78444;BME280;67739;52.986;8.894;2023-05-10T05:46:40;100781.81;;;11.69;79.14
78444;BME280;67739;52.986;8.894;2023-05-10T05:49:06;100790.84;;;11.68;79.45
78444;BME280;67739;52.986;8.894;2023-05-10T05:51:31;100789.19;;;11.65;79.51
78444;BME280;67739;52.986;8.894;2023-05-10T05:53:56;100796.47;;;11.63;79.78
78444;BME280;67739;52.986;8.894;2023-05-10T05:56:22;100795.66;;;11.61;79.90
78444;BME280;67739;52.986;8.894;2023-05-10T05:58:50;100804.81;;;11.57;80.06
78444;BME280;67739;52.986;8.894;2023-05-10T06:01:15;100801.34;;;11.55;80.23
78444;BME280;67739;52.986;8.894;2023-05-10T06:03:41;100809.59;;;11.52;80.31
78444;BME280;67739;52.986;8.894;2023-05-10T06:06:06;100815.03;;;11.51;80.85
78444;BME280;67739;52.986;8.894;2023-05-10T06:08:32;100807.94;;;11.50;80.68
78444;BME280;67739;52.986;8.894;2023-05-10T06:10:59;100817.72;;;11.51;81.24
78444;BME280;67739;52.986;8.894;2023-05-10T06:13:24;100811.56;;;11.49;81.50
78444;BME280;67739;52.986;8.894;2023-05-10T06:15:49;100811.63;;;11.47;81.22
78444;BME280;67739;52.986;8.894;2023-05-10T06:18:15;100816.94;;;11.49;81.55
78444;BME280;67739;52.986;8.894;2023-05-10T06:20:41;100803.56;;;11.47;81.83
78444;BME280;67739;52.986;8.894;2023-05-10T06:23:07;100816.06;;;11.48;82.17
78444;BME280;67739;52.986;8.894;2023-05-10T06:25:32;100815.19;;;11.48;82.34
78444;BME280;67739;52.986;8.894;2023-05-10T06:27:57;100819.69;;;11.47;82.54
78444;BME280;67739;52.986;8.894;2023-05-10T06:30:24;100810.69;;;11.48;82.24
78444;BME280;67739;52.986;8.894;2023-05-10T06:32:52;100806.34;;;11.46;82.52
78444;BME280;67739;52.986;8.894;2023-05-10T06:35:18;100813.53;;;11.45;83.29
78444;BME280;67739;52.986;8.894;2023-05-10T06:37:43;100819.78;;;11.46;83.66
78444;BME280;67739;52.986;8.894;2023-05-10T06:40:09;100833.13;;;11.47;83.46
78444;BME280;67739;52.986;8.894;2023-05-10T06:42:34;100834.00;;;11.48;84.14
78444;BME280;67739;52.986;8.894;2023-05-10T06:45:00;100839.28;;;11.49;84.07
78444;BME280;67739;52.986;8.894;2023-05-10T06:47:25;100842.59;;;11.54;84.66
78444;BME280;67739;52.986;8.894;2023-05-10T06:49:50;100849.56;;;11.58;84.50
78444;BME280;67739;52.986;8.894;2023-05-10T06:52:16;100862.03;;;11.59;84.49
78444;BME280;67739;52.986;8.894;2023-05-10T06:54:41;100861.16;;;11.59;84.87
78444;BME280;67739;52.986;8.894;2023-05-10T06:57:07;100863.00;;;11.58;85.01
78444;BME280;67739;52.986;8.894;2023-05-10T06:59:32;100871.13;;;11.57;85.24
78444;BME280;67739;52.986;8.894;2023-05-10T07:01:57;100880.13;;;11.56;85.36
78444;BME280;67739;52.986;8.894;2023-05-10T07:04:23;100868.44;;;11.57;85.50
78444;BME280;67739;52.986;8.894;2023-05-10T07:06:48;100871.19;;;11.55;85.68
78444;BME280;67739;52.986;8.894;2023-05-10T07:09:14;100874.53;;;11.60;85.95
78444;BME280;67739;52.986;8.894;2023-05-10T07:11:40;100877.16;;;11.62;85.95
78444;BME280;67739;52.986;8.894;2023-05-10T07:14:06;100884.97;;;11.66;86.02
78444;BME280;67739;52.986;8.894;2023-05-10T07:16:31;100890.03;;;11.73;86.03
78444;BME280;67739;52.986;8.894;2023-05-10T07:18:56;100878.94;;;11.80;86.42
78444;BME280;67739;52.986;8.894;2023-05-10T07:21:22;100880.34;;;11.87;86.09
78444;BME280;67739;52.986;8.894;2023-05-10T07:23:49;100879.16;;;11.93;86.48
78444;BME280;67739;52.986;8.894;2023-05-10T07:26:14;100878.66;;;12.02;86.77
78444;BME280;67739;52.986;8.894;2023-05-10T07:28:41;100882.59;;;12.12;87.13
78444;BME280;67739;52.986;8.894;2023-05-10T07:31:07;100881.00;;;12.25;87.14
78444;BME280;67739;52.986;8.894;2023-05-10T07:33:32;100890.25;;;12.37;87.54
78444;BME280;67739;52.986;8.894;2023-05-10T07:35:57;100883.47;;;12.46;87.49
78444;BME280;67739;52.986;8.894;2023-05-10T07:38:23;100892.78;;;12.56;87.55
78444;BME280;67739;52.986;8.894;2023-05-10T07:40:48;100886.91;;;12.65;87.54
78444;BME280;67739;52.986;8.894;2023-05-10T07:43:13;100892.66;;;12.74;87.12
78444;BME280;67739;52.986;8.894;2023-05-10T07:45:39;100882.22;;;12.84;87.29
78444;BME280;67739;52.986;8.894;2023-05-10T07:48:04;100890.41;;;12.98;87.85
78444;BME280;67739;52.986;8.894;2023-05-10T07:50:29;100888.06;;;13.08;87.16
78444;BME280;67739;52.986;8.894;2023-05-10T07:52:55;100886.59;;;13.18;87.28
78444;BME280;67739;52.986;8.894;2023-05-10T07:55:20;100892.22;;;13.29;87.52
78444;BME280;67739;52.986;8.894;2023-05-10T07:57:48;100890.78;;;13.39;87.25
78444;BME280;67739;52.986;8.894;2023-05-10T08:00:17;100888.31;;;13.51;87.28
78444;BME280;67739;52.986;8.894;2023-05-10T08:02:43;100891.22;;;13.62;87.01
78444;BME280;67739;52.986;8.894;2023-05-10T08:05:08;100896.19;;;13.69;86.92
78444;BME280;67739;52.986;8.894;2023-05-10T08:07:33;100894.84;;;13.76;87.16
78444;BME280;67739;52.986;8.894;2023-05-10T08:09:59;100899.50;;;13.89;87.46
78444;BME280;67739;52.986;8.894;2023-05-10T08:12:25;100907.81;;;14.00;87.61
78444;BME280;67739;52.986;8.894;2023-05-10T08:14:50;100903.44;;;14.13;88.16
78444;BME280;67739;52.986;8.894;2023-05-10T08:17:15;100900.06;;;14.24;88.04
78444;BME280;67739;52.986;8.894;2023-05-10T08:19:41;100911.91;;;14.35;87.02
78444;BME280;67739;52.986;8.894;2023-05-10T08:22:06;100911.84;;;14.37;86.48
78444;BME280;67739;52.986;8.894;2023-05-10T08:24:31;100912.34;;;14.43;86.54
78444;BME280;67739;52.986;8.894;2023-05-10T08:26:57;100906.56;;;14.49;86.62
78444;BME280;67739;52.986;8.894;2023-05-10T08:29:22;100917.75;;;14.58;85.69
78444;BME280;67739;52.986;8.894;2023-05-10T08:31:48;100912.94;;;14.63;85.50
78444;BME280;67739;52.986;8.894;2023-05-10T08:34:13;100916.13;;;14.69;85.64
78444;BME280;67739;52.986;8.894;2023-05-10T08:36:38;100912.81;;;14.78;85.39
78444;BME280;67739;52.986;8.894;2023-05-10T08:39:04;100915.69;;;14.90;85.20
78444;BME280;67739;52.986;8.894;2023-05-10T08:41:29;100918.69;;;14.99;86.05
78444;BME280;67739;52.986;8.894;2023-05-10T08:43:58;100922.34;;;15.12;85.92
78444;BME280;67739;52.986;8.894;2023-05-10T08:46:25;100917.44;;;15.32;86.07
78444;BME280;67739;52.986;8.894;2023-05-10T08:48:53;100922.81;;;15.46;85.75
78444;BME280;67739;52.986;8.894;2023-05-10T08:51:22;100922.78;;;15.60;85.50
78444;BME280;67739;52.986;8.894;2023-05-10T08:53:49;100924.78;;;15.71;85.10
78444;BME280;67739;52.986;8.894;2023-05-10T08:56:15;100934.22;;;15.78;84.36
78444;BME280;67739;52.986;8.894;2023-05-10T08:58:40;100938.25;;;15.85;84.13
78444;BME280;67739;52.986;8.894;2023-05-10T09:01:07;100938.25;;;15.85;83.08
78444;BME280;67739;52.986;8.894;2023-05-10T09:03:32;100941.84;;;15.85;82.71
78444;BME280;67739;52.986;8.894;2023-05-10T09:05:58;100943.03;;;15.94;83.33
78444;BME280;67739;52.986;8.894;2023-05-10T09:08:24;100937.22;;;16.00;82.42
78444;BME280;67739;52.986;8.894;2023-05-10T09:10:54;100950.88;;;16.11;82.51
78444;BME280;67739;52.986;8.894;2023-05-10T09:13:21;100953.91;;;16.32;83.38
78444;BME280;67739;52.986;8.894;2023-05-10T09:15:47;100954.50;;;16.63;84.51
78444;BME280;67739;52.986;8.894;2023-05-10T09:18:13;100958.69;;;17.05;85.61
78444;BME280;67739;52.986;8.894;2023-05-10T09:20:39;100959.81;;;17.39;82.11
78444;BME280;67739;52.986;8.894;2023-05-10T09:23:04;100966.38;;;17.60;79.81
78444;BME280;67739;52.986;8.894;2023-05-10T09:25:30;100964.63;;;17.72;78.54
78444;BME280;67739;52.986;8.894;2023-05-10T09:27:58;100975.00;;;17.78;77.51
78444;BME280;67739;52.986;8.894;2023-05-10T09:30:29;100974.22;;;17.88;78.32
78444;BME280;67739;52.986;8.894;2023-05-10T09:32:55;100972.28;;;18.01;78.70
78444;BME280;67739;52.986;8.894;2023-05-10T09:35:23;100972.84;;;18.18;77.60
78444;BME280;67739;52.986;8.894;2023-05-10T09:37:50;100965.84;;;18.26;75.61
78444;BME280;67739;52.986;8.894;2023-05-10T09:40:26;100968.66;;;18.25;75.03
78444;BME280;67739;52.986;8.894;2023-05-10T09:43:04;100965.53;;;18.18;73.81
78444;BME280;67739;52.986;8.894;2023-05-10T09:45:33;100968.00;;;18.10;74.01
78444;BME280;67739;52.986;8.894;2023-05-10T09:47:59;100975.28;;;18.10;74.32
78444;BME280;67739;52.986;8.894;2023-05-10T09:50:25;100968.75;;;18.12;74.35
78444;BME280;67739;52.986;8.894;2023-05-10T09:53:01;100977.16;;;18.20;74.89
78444;BME280;67739;52.986;8.894;2023-05-10T09:55:45;100975.38;;;18.32;74.88
78444;BME280;67739;52.986;8.894;2023-05-10T09:58:11;100974.53;;;18.43;74.34
78444;BME280;67739;52.986;8.894;2023-05-10T10:00:44;100975.66;;;18.51;73.03
78444;BME280;67739;52.986;8.894;2023-05-10T10:03:17;100979.66;;;18.58;72.82
78444;BME280;67739;52.986;8.894;2023-05-10T10:05:43;100972.38;;;18.59;72.22
78444;BME280;67739;52.986;8.894;2023-05-10T10:08:09;100977.81;;;18.59;71.64
78444;BME280;67739;52.986;8.894;2023-05-10T10:10:35;100986.81;;;18.59;71.69
78444;BME280;67739;52.986;8.894;2023-05-10T10:13:01;100988.75;;;18.57;70.94
78444;BME280;67739;52.986;8.894;2023-05-10T10:15:26;100988.00;;;18.55;71.51
78444;BME280;67739;52.986;8.894;2023-05-10T10:17:53;100995.66;;;18.50;71.41
78444;BME280;67739;52.986;8.894;2023-05-10T10:20:19;100993.03;;;18.37;71.07
78444;BME280;67739;52.986;8.894;2023-05-10T10:22:46;100990.34;;;18.14;69.83
78444;BME280;67739;52.986;8.894;2023-05-10T10:25:16;101000.97;;;17.93;70.35
78444;BME280;67739;52.986;8.894;2023-05-10T10:33:16;101001.75;;;17.71;72.32
78444;BME280;67739;52.986;8.894;2023-05-10T10:35:45;101005.81;;;17.77;72.75
78444;BME280;67739;52.986;8.894;2023-05-10T10:38:12;101005.16;;;17.86;73.30
78444;BME280;67739;52.986;8.894;2023-05-10T10:40:38;101005.47;;;18.05;74.30
78444;BME280;67739;52.986;8.894;2023-05-10T10:43:22;101003.50;;;18.31;71.86
78444;BME280;67739;52.986;8.894;2023-05-10T10:46:11;100998.84;;;18.44;70.84
78444;BME280;67739;52.986;8.894;2023-05-10T10:48:40;100994.91;;;18.48;70.50
78444;BME280;67739;52.986;8.894;2023-05-10T10:51:06;100992.28;;;18.47;70.16
78444;BME280;67739;52.986;8.894;2023-05-10T10:53:32;100998.22;;;18.41;69.89
78444;BME280;67739;52.986;8.894;2023-05-10T10:56:15;101003.97;;;18.25;69.70
78444;BME280;67739;52.986;8.894;2023-05-10T10:58:49;101008.84;;;18.09;70.25
78444;BME280;67739;52.986;8.894;2023-05-10T11:01:19;100999.66;;;17.98;70.95
78444;BME280;67739;52.986;8.894;2023-05-10T11:04:17;101010.38;;;17.89;71.12
78444;BME280;67739;52.986;8.894;2023-05-10T11:06:42;101009.28;;;17.79;71.77
78444;BME280;67739;52.986;8.894;2023-05-10T11:09:11;101009.53;;;17.76;72.20
78444;BME280;67739;52.986;8.894;2023-05-10T11:11:53;101015.69;;;17.78;72.75
78444;BME280;67739;52.986;8.894;2023-05-10T11:14:23;101013.41;;;17.84;73.72
78444;BME280;67739;52.986;8.894;2023-05-10T11:16:49;101018.44;;;18.01;74.08
78444;BME280;67739;52.986;8.894;2023-05-10T11:19:15;101019.75;;;18.20;73.49
78444;BME280;67739;52.986;8.894;2023-05-10T11:24:29;101009.56;;;18.69;73.03
78444;BME280;67739;52.986;8.894;2023-05-10T11:26:54;101014.03;;;18.93;72.43
78444;BME280;67739;52.986;8.894;2023-05-10T11:29:20;101015.06;;;19.14;72.11
78444;BME280;67739;52.986;8.894;2023-05-10T11:31:46;101011.81;;;19.20;69.81
78444;BME280;67739;52.986;8.894;2023-05-10T11:34:23;101015.16;;;19.24;68.69
78444;BME280;67739;52.986;8.894;2023-05-10T11:36:53;101016.03;;;19.24;69.11
78444;BME280;67739;52.986;8.894;2023-05-10T11:39:19;101020.13;;;19.30;69.04
78444;BME280;67739;52.986;8.894;2023-05-10T11:41:47;101017.03;;;19.23;67.18
78444;BME280;67739;52.986;8.894;2023-05-10T11:44:13;101029.75;;;19.23;68.69
78444;BME280;67739;52.986;8.894;2023-05-10T11:46:38;101023.09;;;19.27;69.23
78444;BME280;67739;52.986;8.894;2023-05-10T11:49:04;101014.56;;;19.31;68.77
78444;BME280;67739;52.986;8.894;2023-05-10T11:51:35;101018.53;;;19.50;69.94
78444;BME280;67739;52.986;8.894;2023-05-10T11:54:05;101025.91;;;19.70;69.39
78444;BME280;67739;52.986;8.894;2023-05-10T11:56:32;101029.84;;;19.77;67.93
78444;BME280;67739;52.986;8.894;2023-05-10T11:58:58;101031.34;;;19.81;67.70
78444;BME280;67739;52.986;8.894;2023-05-10T12:01:27;101026.88;;;19.80;65.28
78444;BME280;67739;52.986;8.894;2023-05-10T12:03:54;101030.59;;;19.79;67.18
78444;BME280;67739;52.986;8.894;2023-05-10T12:06:26;101033.59;;;19.76;67.10
78444;BME280;67739;52.986;8.894;2023-05-10T12:08:52;101030.59;;;19.79;67.69
78444;BME280;67739;52.986;8.894;2023-05-10T12:11:20;101041.00;;;19.85;68.11
78444;BME280;67739;52.986;8.894;2023-05-10T12:13:49;101042.19;;;19.92;67.83
78444;BME280;67739;52.986;8.894;2023-05-10T12:16:18;101053.25;;;19.91;65.57
78444;BME280;67739;52.986;8.894;2023-05-10T12:18:44;101064.28;;;19.67;65.10
78444;BME280;67739;52.986;8.894;2023-05-10T12:21:11;101078.13;;;19.41;66.23
78444;BME280;67739;52.986;8.894;2023-05-10T12:23:37;101078.84;;;19.21;68.01
78444;BME280;67739;52.986;8.894;2023-05-10T12:26:03;101088.09;;;19.07;69.04
78444;BME280;67739;52.986;8.894;2023-05-10T12:28:32;101078.19;;;18.95;69.84
78444;BME280;67739;52.986;8.894;2023-05-10T12:31:01;101086.44;;;18.83;70.29
78444;BME280;67739;52.986;8.894;2023-05-10T12:33:41;101083.72;;;18.83;71.46
78444;BME280;67739;52.986;8.894;2023-05-10T12:36:11;101081.00;;;18.83;71.49
78444;BME280;67739;52.986;8.894;2023-05-10T12:38:41;101086.66;;;18.80;71.40
78444;BME280;67739;52.986;8.894;2023-05-10T12:41:10;101091.09;;;18.69;70.80
78444;BME280;67739;52.986;8.894;2023-05-10T12:43:36;101092.81;;;18.59;71.02
78444;BME280;67739;52.986;8.894;2023-05-10T12:46:16;101086.53;;;18.46;71.07
78444;BME280;67739;52.986;8.894;2023-05-10T12:48:43;101092.69;;;18.48;72.83
78444;BME280;67739;52.986;8.894;2023-05-10T12:51:09;101087.44;;;18.58;74.51
78444;BME280;67739;52.986;8.894;2023-05-10T12:53:37;101096.53;;;18.69;74.36
78444;BME280;67739;52.986;8.894;2023-05-10T12:56:02;101104.94;;;18.78;72.77
78444;BME280;67739;52.986;8.894;2023-05-10T12:58:28;101098.63;;;18.77;72.01
78444;BME280;67739;52.986;8.894;2023-05-10T13:00:53;101115.31;;;18.73;71.64
78444;BME280;67739;52.986;8.894;2023-05-10T13:03:19;101107.88;;;18.63;71.30
78444;BME280;67739;52.986;8.894;2023-05-10T13:05:44;101121.25;;;18.54;70.52
78444;BME280;67739;52.986;8.894;2023-05-10T13:08:10;101107.06;;;18.26;69.28
78444;BME280;67739;52.986;8.894;2023-05-10T13:10:35;101117.66;;;18.06;70.02
78444;BME280;67739;52.986;8.894;2023-05-10T13:13:01;101114.13;;;17.92;70.52
78444;BME280;67739;52.986;8.894;2023-05-10T13:15:26;101116.53;;;17.84;71.06